sensor_id;sensor_type;location;lat;lon;timestamp;pressure;altitude;pressure_sealevel;temperature;humidity
19590;BME280;12231;42.782;23.388;2022-09-09T00:00:24;95753.22;;;19.08;87.11
19590;BME280;12231;42.782;23.388;2022-09-09T00:03:12;95747.03;;;19.09;87.09
19590;BME280;12231;42.782;23.388;2022-09-09T00:05:52;95744.56;;;19.08;86.33
19590;BME280;12231;42.782;23.388;2022-09-09T00:08:26;95738.00;;;18.94;87.41
19590;BME280;12231;42.782;23.388;2022-09-09T00:10:58;95739.34;;;18.70;88.30
19590;BME280;12231;42.782;23.388;2022-09-09T00:13:35;95742.09;;;18.87;88.50
19590;BME280;12231;42.782;23.388;2022-09-09T00:21:17;95742.81;;;18.89;88.27
19590;BME280;12231;42.782;23.388;2022-09-09T00:23:54;95740.72;;;18.93;87.84
19590;BME280;12231;42.782;23.388;2022-09-09T00:31:30;95726.69;;;19.03;88.23
19590;BME280;12231;42.782;23.388;2022-09-09T00:34:02;95737.97;;;19.04;88.13
19590;BME280;12231;42.782;23.388;2022-09-09T00:36:30;95720.06;;;18.99;88.57
19590;BME280;12231;42.782;23.388;2022-09-09T00:39:00;95721.75;;;18.91;88.54
19590;BME280;12231;42.782;23.388;2022-09-09T00:44:30;95722.97;;;18.87;88.91
19590;BME280;12231;42.782;23.388;2022-09-09T00:49:48;95721.06;;;18.98;88.78
19590;BME280;12231;42.782;23.388;2022-09-09T00:57:48;95713.50;;;18.86;88.04
19590;BME280;12231;42.782;23.388;2022-09-09T01:00:24;95715.97;;;18.87;87.95
19590;BME280;12231;42.782;23.388;2022-09-09T01:11:00;95705.38;;;18.98;87.06
19590;BME280;12231;42.782;23.388;2022-09-09T01:13:33;95700.00;;;19.00;87.13
19590;BME280;12231;42.782;23.388;2022-09-09T01:16:02;95715.41;;;19.03;86.63
19590;BME280;12231;42.782;23.388;2022-09-09T01:18:44;95715.94;;;19.06;85.96
19590;BME280;12231;42.782;23.388;2022-09-09T01:24:15;95706.63;;;19.04;84.84
19590;BME280;12231;42.782;23.388;2022-09-09T01:26:45;95713.22;;;18.89;85.51
19590;BME280;12231;42.782;23.388;2022-09-09T01:29:14;95716.81;;;18.88;85.67
19590;BME280;12231;42.782;23.388;2022-09-09T01:31:53;95717.91;;;18.76;86.57
19590;BME280;12231;42.782;23.388;2022-09-09T01:34:20;95720.25;;;18.79;86.75
19590;BME280;12231;42.782;23.388;2022-09-09T01:39:16;95717.91;;;18.66;87.02
19590;BME280;12231;42.782;23.388;2022-09-09T01:41:42;95730.81;;;18.58;87.47
19590;BME280;12231;42.782;23.388;2022-09-09T01:44:07;95731.38;;;18.62;87.74
19590;BME280;12231;42.782;23.388;2022-09-09T01:46:33;95734.81;;;18.62;88.43
19590;BME280;12231;42.782;23.388;2022-09-09T01:49:00;95734.94;;;18.51;88.73
19590;BME280;12231;42.782;23.388;2022-09-09T01:51:28;95739.59;;;18.48;88.71
19590;BME280;12231;42.782;23.388;2022-09-09T01:53:54;95736.03;;;18.49;89.42
19590;BME280;12231;42.782;23.388;2022-09-09T02:04:52;95735.06;;;18.59;88.72
19590;BME280;12231;42.782;23.388;2022-09-09T02:07:39;95738.66;;;18.58;88.94
19590;BME280;12231;42.782;23.388;2022-09-09T02:10:17;95738.53;;;18.60;88.99
19590;BME280;12231;42.782;23.388;2022-09-09T02:12:48;95732.75;;;18.56;88.74
19590;BME280;12231;42.782;23.388;2022-09-09T02:15:23;95726.25;;;18.41;89.22
19590;BME280;12231;42.782;23.388;2022-09-09T02:17:54;95721.88;;;18.42;89.59
19590;BME280;12231;42.782;23.388;2022-09-09T02:20:23;95724.03;;;18.37;89.18
19590;BME280;12231;42.782;23.388;2022-09-09T02:22:50;95715.88;;;18.11;90.27
19590;BME280;12231;42.782;23.388;2022-09-09T02:25:19;95714.56;;;18.26;90.42
19590;BME280;12231;42.782;23.388;2022-09-09T02:27:47;95716.41;;;18.05;90.36
19590;BME280;12231;42.782;23.388;2022-09-09T02:30:14;95715.75;;;18.13;89.68
19590;BME280;12231;42.782;23.388;2022-09-09T02:32:42;95726.06;;;18.14;90.27
19590;BME280;12231;42.782;23.388;2022-09-09T02:35:14;95728.50;;;18.06;90.09
19590;BME280;12231;42.782;23.388;2022-09-09T02:37:42;95725.72;;;17.89;91.16
19590;BME280;12231;42.782;23.388;2022-09-09T02:40:11;95720.69;;;17.76;92.23
19590;BME280;12231;42.782;23.388;2022-09-09T02:42:48;95729.81;;;17.51;93.96
19590;BME280;12231;42.782;23.388;2022-09-09T02:45:19;95739.00;;;17.35;94.21
19590;BME280;12231;42.782;23.388;2022-09-09T02:50:20;95738.25;;;17.23;94.08
19590;BME280;12231;42.782;23.388;2022-09-09T02:57:56;95733.78;;;17.14;95.34
19590;BME280;12231;42.782;23.388;2022-09-09T03:00:26;95735.25;;;17.28;96.08
19590;BME280;12231;42.782;23.388;2022-09-09T03:02:52;95735.56;;;17.34;96.68
19590;BME280;12231;42.782;23.388;2022-09-09T03:05:19;95726.56;;;17.38;96.56
19590;BME280;12231;42.782;23.388;2022-09-09T03:07:45;95727.63;;;17.36;95.37
19590;BME280;12231;42.782;23.388;2022-09-09T03:10:11;95737.81;;;17.18;94.65
19590;BME280;12231;42.782;23.388;2022-09-09T03:12:36;95747.16;;;17.00;95.09
19590;BME280;12231;42.782;23.388;2022-09-09T03:15:02;95754.50;;;16.75;96.04
19590;BME280;12231;42.782;23.388;2022-09-09T03:17:27;95744.69;;;16.67;97.17
19590;BME280;12231;42.782;23.388;2022-09-09T03:19:53;95741.09;;;17.41;100.00
19590;BME280;12231;42.782;23.388;2022-09-09T03:22:20;95745.75;;;17.88;100.00
19590;BME280;12231;42.782;23.388;2022-09-09T03:24:46;95752.16;;;18.24;98.92
19590;BME280;12231;42.782;23.388;2022-09-09T03:27:12;95742.22;;;18.57;96.17
19590;BME280;12231;42.782;23.388;2022-09-09T03:29:39;95743.22;;;18.94;92.01
19590;BME280;12231;42.782;23.388;2022-09-09T03:32:05;95739.88;;;19.21;89.46
19590;BME280;12231;42.782;23.388;2022-09-09T03:34:31;95733.25;;;19.46;87.08
19590;BME280;12231;42.782;23.388;2022-09-09T03:36:56;95743.75;;;19.73;85.05
19590;BME280;12231;42.782;23.388;2022-09-09T03:39:22;95740.41;;;19.90;82.51
19590;BME280;12231;42.782;23.388;2022-09-09T03:41:47;95741.97;;;20.00;81.72
19590;BME280;12231;42.782;23.388;2022-09-09T03:44:14;95731.09;;;20.14;81.04
19590;BME280;12231;42.782;23.388;2022-09-09T03:46:39;95736.94;;;20.26;80.29
19590;BME280;12231;42.782;23.388;2022-09-09T03:49:05;95737.34;;;20.31;78.52
19590;BME280;12231;42.782;23.388;2022-09-09T03:51:30;95736.81;;;20.27;77.86
19590;BME280;12231;42.782;23.388;2022-09-09T03:53:56;95727.09;;;20.37;78.85
19590;BME280;12231;42.782;23.388;2022-09-09T03:56:23;95734.28;;;20.35;77.31
19590;BME280;12231;42.782;23.388;2022-09-09T03:58:48;95746.38;;;19.73;76.81
19590;BME280;12231;42.782;23.388;2022-09-09T04:01:14;95747.84;;;19.29;78.35
19590;BME280;12231;42.782;23.388;2022-09-09T04:03:42;95750.75;;;18.69;81.32
19590;BME280;12231;42.782;23.388;2022-09-09T04:06:08;95755.47;;;18.26;84.29
19590;BME280;12231;42.782;23.388;2022-09-09T04:08:34;95744.34;;;17.84;85.93
19590;BME280;12231;42.782;23.388;2022-09-09T04:11:02;95757.56;;;17.62;87.13
19590;BME280;12231;42.782;23.388;2022-09-09T04:13:35;95752.94;;;17.24;89.93
19590;BME280;12231;42.782;23.388;2022-09-09T04:16:02;95760.22;;;17.10;91.12
19590;BME280;12231;42.782;23.388;2022-09-09T04:18:29;95754.97;;;17.00;91.97
19590;BME280;12231;42.782;23.388;2022-09-09T04:20:55;95748.97;;;16.89;93.35
19590;BME280;12231;42.782;23.388;2022-09-09T04:23:25;95748.56;;;16.73;94.59
19590;BME280;12231;42.782;23.388;2022-09-09T04:25:52;95747.59;;;16.53;97.61
19590;BME280;12231;42.782;23.388;2022-09-09T04:28:20;95745.56;;;16.57;99.68
19590;BME280;12231;42.782;23.388;2022-09-09T04:30:46;95739.41;;;16.89;98.34
19590;BME280;12231;42.782;23.388;2022-09-09T04:33:13;95738.38;;;17.01;98.14
19590;BME280;12231;42.782;23.388;2022-09-09T04:35:43;95735.22;;;16.98;97.06
19590;BME280;12231;42.782;23.388;2022-09-09T04:38:09;95737.09;;;17.57;96.58
19590;BME280;12231;42.782;23.388;2022-09-09T04:40:35;95746.03;;;17.95;96.11
19590;BME280;12231;42.782;23.388;2022-09-09T04:43:02;95761.47;;;18.56;95.37
19590;BME280;12231;42.782;23.388;2022-09-09T04:45:30;95764.78;;;19.16;90.54
19590;BME280;12231;42.782;23.388;2022-09-09T04:47:56;95760.84;;;19.67;85.88
19590;BME280;12231;42.782;23.388;2022-09-09T04:50:22;95757.53;;;20.11;82.27
19590;BME280;12231;42.782;23.388;2022-09-09T04:52:47;95744.47;;;20.74;78.72
19590;BME280;12231;42.782;23.388;2022-09-09T04:55:13;95741.97;;;20.99;75.22
19590;BME280;12231;42.782;23.388;2022-09-09T04:57:39;95736.44;;;21.02;74.46
19590;BME280;12231;42.782;23.388;2022-09-09T05:00:05;95743.16;;;21.05;73.63
19590;BME280;12231;42.782;23.388;2022-09-09T05:02:31;95734.56;;;21.63;73.06
19590;BME280;12231;42.782;23.388;2022-09-09T05:04:57;95743.22;;;22.15;70.21
19590;BME280;12231;42.782;23.388;2022-09-09T05:07:23;95737.38;;;22.87;69.51
19590;BME280;12231;42.782;23.388;2022-09-09T05:09:49;95724.25;;;23.51;65.46
19590;BME280;12231;42.782;23.388;2022-09-09T05:12:15;95716.94;;;23.85;63.68
19590;BME280;12231;42.782;23.388;2022-09-09T05:14:44;95717.16;;;24.22;62.20
19590;BME280;12231;42.782;23.388;2022-09-09T05:17:10;95726.97;;;24.98;60.57
19590;BME280;12231;42.782;23.388;2022-09-09T05:19:36;95726.72;;;25.67;57.84
19590;BME280;12231;42.782;23.388;2022-09-09T05:22:01;95722.16;;;26.48;56.60
19590;BME280;12231;42.782;23.388;2022-09-09T05:24:27;95726.53;;;27.27;53.89
19590;BME280;12231;42.782;23.388;2022-09-09T05:26:52;95708.88;;;27.89;52.51
19590;BME280;12231;42.782;23.388;2022-09-09T05:29:18;95707.91;;;28.78;50.03
19590;BME280;12231;42.782;23.388;2022-09-09T05:31:46;95709.22;;;29.61;47.61
19590;BME280;12231;42.782;23.388;2022-09-09T05:34:15;95708.56;;;30.24;45.62
19590;BME280;12231;42.782;23.388;2022-09-09T05:36:40;95702.03;;;30.07;45.51
19590;BME280;12231;42.782;23.388;2022-09-09T05:39:06;95696.84;;;30.44;46.33
19590;BME280;12231;42.782;23.388;2022-09-09T05:41:31;95704.78;;;31.26;43.86
19590;BME280;12231;42.782;23.388;2022-09-09T05:43:58;95708.72;;;31.97;41.72
19590;BME280;12231;42.782;23.388;2022-09-09T05:46:26;95708.66;;;32.04;42.13
19590;BME280;12231;42.782;23.388;2022-09-09T05:48:53;95702.91;;;32.43;40.99
19590;BME280;12231;42.782;23.388;2022-09-09T05:51:23;95706.06;;;31.97;41.17
19590;BME280;12231;42.782;23.388;2022-09-09T05:53:50;95710.56;;;32.22;41.42
19590;BME280;12231;42.782;23.388;2022-09-09T05:56:27;95705.00;;;33.07;39.12
19590;BME280;12231;42.782;23.388;2022-09-09T05:58:54;95703.09;;;34.13;36.92
19590;BME280;12231;42.782;23.388;2022-09-09T06:01:22;95706.50;;;34.59;36.16
19590;BME280;12231;42.782;23.388;2022-09-09T06:03:50;95714.38;;;32.98;36.57
19590;BME280;12231;42.782;23.388;2022-09-09T06:06:18;95724.00;;;31.04;41.17
19590;BME280;12231;42.782;23.388;2022-09-09T06:08:46;95725.41;;;29.72;44.19
19590;BME280;12231;42.782;23.388;2022-09-09T06:11:14;95718.78;;;30.07;44.29
19590;BME280;12231;42.782;23.388;2022-09-09T06:13:40;95713.66;;;32.37;38.72
19590;BME280;12231;42.782;23.388;2022-09-09T06:16:09;95713.03;;;31.98;37.89
19590;BME280;12231;42.782;23.388;2022-09-09T06:18:34;95733.78;;;30.78;41.44
19590;BME280;12231;42.782;23.388;2022-09-09T06:21:02;95724.91;;;32.21;38.36
19590;BME280;12231;42.782;23.388;2022-09-09T06:23:30;95727.97;;;30.31;43.69
19590;BME280;12231;42.782;23.388;2022-09-09T06:28:32;95726.72;;;34.04;34.80
19590;BME280;12231;42.782;23.388;2022-09-09T06:30:59;95730.97;;;31.91;39.08
19590;BME280;12231;42.782;23.388;2022-09-09T06:33:24;95735.19;;;29.98;42.47
19590;BME280;12231;42.782;23.388;2022-09-09T06:35:54;95728.22;;;31.73;39.49
19590;BME280;12231;42.782;23.388;2022-09-09T06:38:20;95715.13;;;33.16;36.62
19590;BME280;12231;42.782;23.388;2022-09-09T06:40:57;95703.56;;;34.10;34.90
19590;BME280;12231;42.782;23.388;2022-09-09T06:43:25;95709.16;;;35.39;32.58
19590;BME280;12231;42.782;23.388;2022-09-09T06:45:59;95703.44;;;36.56;29.98
19590;BME280;12231;42.782;23.388;2022-09-09T06:48:25;95694.34;;;37.27;29.38
19590;BME280;12231;42.782;23.388;2022-09-09T06:50:59;95689.78;;;37.28;28.36
19590;BME280;12231;42.782;23.388;2022-09-09T06:53:25;95696.34;;;37.42;28.81
19590;BME280;12231;42.782;23.388;2022-09-09T06:55:51;95702.63;;;37.79;27.56
19590;BME280;12231;42.782;23.388;2022-09-09T06:58:16;95717.38;;;37.45;28.50
19590;BME280;12231;42.782;23.388;2022-09-09T07:00:42;95725.25;;;35.55;31.23
19590;BME280;12231;42.782;23.388;2022-09-09T07:03:07;95725.72;;;33.53;34.07
19590;BME280;12231;42.782;23.388;2022-09-09T07:05:34;95723.56;;;35.21;32.24
19590;BME280;12231;42.782;23.388;2022-09-09T07:08:00;95718.06;;;36.27;30.22
19590;BME280;12231;42.782;23.388;2022-09-09T07:10:25;95724.56;;;35.93;30.65
19590;BME280;12231;42.782;23.388;2022-09-09T07:12:51;95727.72;;;35.29;32.18
19590;BME280;12231;42.782;23.388;2022-09-09T07:15:18;95724.22;;;33.80;33.45
19590;BME280;12231;42.782;23.388;2022-09-09T07:17:44;95713.88;;;34.64;32.84
19590;BME280;12231;42.782;23.388;2022-09-09T07:20:09;95713.56;;;35.78;31.67
19590;BME280;12231;42.782;23.388;2022-09-09T07:22:35;95718.06;;;35.00;31.47
19590;BME280;12231;42.782;23.388;2022-09-09T07:25:00;95717.06;;;35.17;31.68
19590;BME280;12231;42.782;23.388;2022-09-09T07:27:27;95716.66;;;35.53;31.13
19590;BME280;12231;42.782;23.388;2022-09-09T07:29:52;95716.00;;;35.46;31.07
19590;BME280;12231;42.782;23.388;2022-09-09T07:32:19;95708.97;;;35.01;32.75
19590;BME280;12231;42.782;23.388;2022-09-09T07:34:45;95718.13;;;34.77;33.29
19590;BME280;12231;42.782;23.388;2022-09-09T07:37:11;95705.50;;;36.11;31.47
19590;BME280;12231;42.782;23.388;2022-09-09T07:39:39;95696.63;;;36.70;30.20
19590;BME280;12231;42.782;23.388;2022-09-09T07:42:04;95701.34;;;35.09;32.64
19590;BME280;12231;42.782;23.388;2022-09-09T07:44:31;95702.38;;;33.83;33.55
19590;BME280;12231;42.782;23.388;2022-09-09T07:47:00;95711.84;;;34.71;34.14
19590;BME280;12231;42.782;23.388;2022-09-09T07:49:25;95712.44;;;34.61;33.62
19590;BME280;12231;42.782;23.388;2022-09-09T07:51:51;95714.59;;;33.37;35.58
19590;BME280;12231;42.782;23.388;2022-09-09T07:54:18;95716.47;;;34.76;33.42
19590;BME280;12231;42.782;23.388;2022-09-09T07:56:49;95714.28;;;34.73;32.85
19590;BME280;12231;42.782;23.388;2022-09-09T07:59:16;95714.03;;;35.14;32.71
19590;BME280;12231;42.782;23.388;2022-09-09T08:01:51;95710.38;;;35.03;32.61
19590;BME280;12231;42.782;23.388;2022-09-09T08:04:20;95700.31;;;35.27;32.31
19590;BME280;12231;42.782;23.388;2022-09-09T08:06:49;95706.19;;;34.96;31.34
19590;BME280;12231;42.782;23.388;2022-09-09T08:09:15;95710.09;;;34.77;32.24
19590;BME280;12231;42.782;23.388;2022-09-09T08:11:41;95711.88;;;34.99;31.97
19590;BME280;12231;42.782;23.388;2022-09-09T08:14:11;95706.00;;;35.42;31.85
19590;BME280;12231;42.782;23.388;2022-09-09T08:16:45;95708.06;;;34.32;33.26
19590;BME280;12231;42.782;23.388;2022-09-09T08:19:11;95707.09;;;33.46;33.57
19590;BME280;12231;42.782;23.388;2022-09-09T08:21:38;95706.72;;;34.07;32.34
19590;BME280;12231;42.782;23.388;2022-09-09T08:24:06;95702.84;;;33.68;33.63
19590;BME280;12231;42.782;23.388;2022-09-09T08:26:34;95700.28;;;34.19;32.92
19590;BME280;12231;42.782;23.388;2022-09-09T08:29:02;95700.69;;;33.47;34.85
19590;BME280;12231;42.782;23.388;2022-09-09T08:31:30;95695.75;;;32.91;34.51
19590;BME280;12231;42.782;23.388;2022-09-09T08:33:57;95691.25;;;32.74;35.92
19590;BME280;12231;42.782;23.388;2022-09-09T08:36:26;95699.28;;;31.52;38.92
19590;BME280;12231;42.782;23.388;2022-09-09T08:38:54;95695.75;;;31.58;38.76
19590;BME280;12231;42.782;23.388;2022-09-09T08:44:28;95694.00;;;31.46;39.23
19590;BME280;12231;42.782;23.388;2022-09-09T08:49:50;95683.09;;;32.15;38.81
19590;BME280;12231;42.782;23.388;2022-09-09T08:52:23;95683.84;;;31.30;39.33
19590;BME280;12231;42.782;23.388;2022-09-09T08:54:51;95678.09;;;31.33;39.69
19590;BME280;12231;42.782;23.388;2022-09-09T08:57:23;95667.06;;;31.54;39.43
19590;BME280;12231;42.782;23.388;2022-09-09T08:59:52;95678.38;;;32.35;38.17
19590;BME280;12231;42.782;23.388;2022-09-09T09:05:18;95674.16;;;32.93;36.20
19590;BME280;12231;42.782;23.388;2022-09-09T09:07:52;95673.16;;;32.58;37.42
19590;BME280;12231;42.782;23.388;2022-09-09T09:10:41;95691.63;;;31.00;40.15
19590;BME280;12231;42.782;23.388;2022-09-09T09:13:14;95679.25;;;33.24;36.54
19590;BME280;12231;42.782;23.388;2022-09-09T09:15:42;95676.94;;;34.94;33.98
19590;BME280;12231;42.782;23.388;2022-09-09T09:18:12;95678.78;;;34.94;32.45
19590;BME280;12231;42.782;23.388;2022-09-09T09:23:12;95670.75;;;34.66;33.12
19590;BME280;12231;42.782;23.388;2022-09-09T09:25:42;95668.81;;;35.67;32.33
19590;BME280;12231;42.782;23.388;2022-09-09T09:28:24;95665.22;;;34.44;33.39
19590;BME280;12231;42.782;23.388;2022-09-09T09:30:55;95661.22;;;33.95;34.68
19590;BME280;12231;42.782;23.388;2022-09-09T09:36:08;95669.03;;;33.21;36.29
19590;BME280;12231;42.782;23.388;2022-09-09T09:38:35;95671.16;;;33.54;35.43
19590;BME280;12231;42.782;23.388;2022-09-09T09:41:01;95665.03;;;32.82;36.78
19590;BME280;12231;42.782;23.388;2022-09-09T09:43:31;95655.50;;;32.57;37.13
19590;BME280;12231;42.782;23.388;2022-09-09T09:45:58;95660.53;;;32.65;36.64
19590;BME280;12231;42.782;23.388;2022-09-09T09:48:25;95658.78;;;32.23;38.84
19590;BME280;12231;42.782;23.388;2022-09-09T09:50:57;95649.16;;;33.40;37.34
19590;BME280;12231;42.782;23.388;2022-09-09T09:53:27;95648.56;;;34.30;36.87
19590;BME280;12231;42.782;23.388;2022-09-09T09:56:02;95643.16;;;33.79;35.18
19590;BME280;12231;42.782;23.388;2022-09-09T09:58:31;95644.16;;;32.25;38.45
19590;BME280;12231;42.782;23.388;2022-09-09T10:00:59;95642.75;;;31.86;40.56
19590;BME280;12231;42.782;23.388;2022-09-09T10:03:29;95644.16;;;31.46;40.39
19590;BME280;12231;42.782;23.388;2022-09-09T10:05:55;95648.16;;;30.68;41.39
19590;BME280;12231;42.782;23.388;2022-09-09T10:08:23;95650.72;;;30.50;43.62
19590;BME280;12231;42.782;23.388;2022-09-09T10:19:13;95654.44;;;29.86;45.31
19590;BME280;12231;42.782;23.388;2022-09-09T10:26:59;95658.91;;;29.92;47.02
19590;BME280;12231;42.782;23.388;2022-09-09T10:35:10;95658.88;;;30.05;46.06
19590;BME280;12231;42.782;23.388;2022-09-09T10:40:37;95663.31;;;30.24;46.34
19590;BME280;12231;42.782;23.388;2022-09-09T10:48:15;95664.75;;;30.26;46.67
19590;BME280;12231;42.782;23.388;2022-09-09T10:56:16;95666.47;;;29.95;47.97
19590;BME280;12231;42.782;23.388;2022-09-09T10:58:54;95666.25;;;29.90;47.89
19590;BME280;12231;42.782;23.388;2022-09-09T11:01:27;95665.25;;;29.91;47.27
19590;BME280;12231;42.782;23.388;2022-09-09T11:04:00;95662.16;;;30.00;47.14
19590;BME280;12231;42.782;23.388;2022-09-09T11:06:32;95663.78;;;30.01;46.28
19590;BME280;12231;42.782;23.388;2022-09-09T11:09:02;95660.97;;;29.83;47.32
19590;BME280;12231;42.782;23.388;2022-09-09T11:11:41;95656.06;;;29.80;47.42
19590;BME280;12231;42.782;23.388;2022-09-09T11:14:55;95648.66;;;30.02;47.05
19590;BME280;12231;42.782;23.388;2022-09-09T11:17:03;95651.69;;;30.12;46.61
19590;BME280;12231;42.782;23.388;2022-09-09T11:19:36;95649.13;;;29.73;47.88
19590;BME280;12231;42.782;23.388;2022-09-09T11:22:36;95640.34;;;29.33;49.72
19590;BME280;12231;42.782;23.388;2022-09-09T11:38:57;95627.03;;;28.20;54.04
19590;BME280;12231;42.782;23.388;2022-09-09T11:41:36;95623.97;;;28.97;51.53
19590;BME280;12231;42.782;23.388;2022-09-09T11:44:11;95601.31;;;29.40;49.73
19590;BME280;12231;42.782;23.388;2022-09-09T11:46:38;95595.72;;;29.87;48.91
19590;BME280;12231;42.782;23.388;2022-09-09T11:49:06;95583.78;;;30.03;49.38
19590;BME280;12231;42.782;23.388;2022-09-09T11:51:33;95592.72;;;30.28;49.65
19590;BME280;12231;42.782;23.388;2022-09-09T11:54:48;95585.91;;;29.75;49.91
19590;BME280;12231;42.782;23.388;2022-09-09T11:56:48;95582.28;;;30.26;49.11
19590;BME280;12231;42.782;23.388;2022-09-09T11:59:22;95573.22;;;30.65;47.12
19590;BME280;12231;42.782;23.388;2022-09-09T12:02:27;95576.66;;;31.03;46.07
19590;BME280;12231;42.782;23.388;2022-09-09T12:05:10;95571.38;;;31.21;46.29
19590;BME280;12231;42.782;23.388;2022-09-09T12:07:38;95575.53;;;30.93;47.64
19590;BME280;12231;42.782;23.388;2022-09-09T12:12:48;95565.22;;;31.63;45.55
19590;BME280;12231;42.782;23.388;2022-09-09T12:15:28;95561.00;;;32.28;43.96
19590;BME280;12231;42.782;23.388;2022-09-09T12:17:56;95565.53;;;32.09;44.98
19590;BME280;12231;42.782;23.388;2022-09-09T12:31:20;95559.09;;;30.96;45.77
19590;BME280;12231;42.782;23.388;2022-09-09T12:33:48;95548.94;;;31.53;45.89
19590;BME280;12231;42.782;23.388;2022-09-09T12:36:19;95546.50;;;32.06;45.86
19590;BME280;12231;42.782;23.388;2022-09-09T12:38:46;95552.13;;;31.62;47.09
19590;BME280;12231;42.782;23.388;2022-09-09T12:41:23;95539.09;;;31.90;46.51
19590;BME280;12231;42.782;23.388;2022-09-09T12:43:50;95530.50;;;31.34;45.81
19590;BME280;12231;42.782;23.388;2022-09-09T12:46:43;95527.00;;;31.33;45.38
19590;BME280;12231;42.782;23.388;2022-09-09T12:49:35;95526.06;;;31.21;46.45
19590;BME280;12231;42.782;23.388;2022-09-09T12:52:12;95521.25;;;31.12;46.07
19590;BME280;12231;42.782;23.388;2022-09-09T12:54:44;95517.63;;;30.82;47.93
19590;BME280;12231;42.782;23.388;2022-09-09T12:57:12;95515.41;;;30.78;47.75
19590;BME280;12231;42.782;23.388;2022-09-09T12:59:41;95515.69;;;31.13;47.07
19590;BME280;12231;42.782;23.388;2022-09-09T13:02:25;95514.84;;;30.70;48.49
19590;BME280;12231;42.782;23.388;2022-09-09T13:04:51;95523.78;;;30.51;48.65
19590;BME280;12231;42.782;23.388;2022-09-09T13:07:18;95520.03;;;30.58;49.39
19590;BME280;12231;42.782;23.388;2022-09-09T13:09:45;95509.19;;;31.09;48.49
19590;BME280;12231;42.782;23.388;2022-09-09T13:12:18;95511.78;;;31.40;47.41
19590;BME280;12231;42.782;23.388;2022-09-09T13:14:49;95516.50;;;31.56;47.96
19590;BME280;12231;42.782;23.388;2022-09-09T13:17:26;95506.38;;;31.47;47.30
19590;BME280;12231;42.782;23.388;2022-09-09T13:19:56;95504.72;;;31.46;47.34
19590;BME280;12231;42.782;23.388;2022-09-09T13:22:31;95496.13;;;31.62;49.50
19590;BME280;12231;42.782;23.388;2022-09-09T13:27:41;95485.81;;;31.65;47.65
19590;BME280;12231;42.782;23.388;2022-09-09T13:30:24;95486.03;;;31.82;47.31
19590;BME280;12231;42.782;23.388;2022-09-09T13:35:35;95475.13;;;31.29;49.95
19590;BME280;12231;42.782;23.388;2022-09-09T13:38:09;95479.41;;;31.55;49.58
19590;BME280;12231;42.782;23.388;2022-09-09T13:40:35;95475.44;;;31.75;49.14
19590;BME280;12231;42.782;23.388;2022-09-09T13:43:02;95484.41;;;30.84;51.21
19590;BME280;12231;42.782;23.388;2022-09-09T13:45:28;95483.53;;;30.65;52.16
19590;BME280;12231;42.782;23.388;2022-09-09T13:47:55;95481.03;;;30.95;49.78
19590;BME280;12231;42.782;23.388;2022-09-09T13:52:47;95475.72;;;28.87;56.21
19590;BME280;12231;42.782;23.388;2022-09-09T13:55:14;95473.22;;;29.05;55.18
19590;BME280;12231;42.782;23.388;2022-09-09T13:57:53;95471.00;;;28.96;56.18
19590;BME280;12231;42.782;23.388;2022-09-09T14:00:18;95470.00;;;28.84;56.86
19590;BME280;12231;42.782;23.388;2022-09-09T14:02:44;95465.53;;;28.65;56.55
19590;BME280;12231;42.782;23.388;2022-09-09T14:05:10;95468.50;;;29.27;55.87
19590;BME280;12231;42.782;23.388;2022-09-09T14:07:40;95470.16;;;29.79;56.06
19590;BME280;12231;42.782;23.388;2022-09-09T14:10:07;95460.16;;;30.12;53.63
19590;BME280;12231;42.782;23.388;2022-09-09T14:12:32;95453.53;;;30.27;53.59
19590;BME280;12231;42.782;23.388;2022-09-09T14:14:58;95446.00;;;30.49;52.64
19590;BME280;12231;42.782;23.388;2022-09-09T14:17:25;95450.16;;;30.63;51.67
19590;BME280;12231;42.782;23.388;2022-09-09T14:19:54;95449.09;;;30.70;51.15
19590;BME280;12231;42.782;23.388;2022-09-09T14:22:20;95458.31;;;30.93;51.08
19590;BME280;12231;42.782;23.388;2022-09-09T14:24:45;95446.31;;;30.59;51.04
19590;BME280;12231;42.782;23.388;2022-09-09T14:27:11;95450.38;;;30.61;50.41
19590;BME280;12231;42.782;23.388;2022-09-09T14:29:36;95457.63;;;30.30;52.32
19590;BME280;12231;42.782;23.388;2022-09-09T14:32:02;95451.03;;;30.32;52.41
19590;BME280;12231;42.782;23.388;2022-09-09T14:34:27;95451.63;;;30.03;52.53
19590;BME280;12231;42.782;23.388;2022-09-09T14:36:53;95449.94;;;30.09;53.67
19590;BME280;12231;42.782;23.388;2022-09-09T14:39:18;95450.13;;;29.83;53.56
19590;BME280;12231;42.782;23.388;2022-09-09T14:41:43;95448.75;;;29.61;53.63
19590;BME280;12231;42.782;23.388;2022-09-09T14:44:10;95448.56;;;29.55;53.51
19590;BME280;12231;42.782;23.388;2022-09-09T14:46:37;95441.38;;;29.63;54.36
19590;BME280;12231;42.782;23.388;2022-09-09T14:49:03;95443.22;;;29.69;53.83
19590;BME280;12231;42.782;23.388;2022-09-09T14:51:29;95451.84;;;29.58;53.57
19590;BME280;12231;42.782;23.388;2022-09-09T14:53:58;95446.16;;;29.47;53.60
19590;BME280;12231;42.782;23.388;2022-09-09T14:56:27;95445.19;;;29.35;52.64
19590;BME280;12231;42.782;23.388;2022-09-09T14:58:54;95442.00;;;29.65;53.06
19590;BME280;12231;42.782;23.388;2022-09-09T15:01:20;95444.91;;;29.57;52.48
19590;BME280;12231;42.782;23.388;2022-09-09T15:03:56;95443.22;;;29.62;52.74
19590;BME280;12231;42.782;23.388;2022-09-09T15:06:23;95443.63;;;29.15;54.54
19590;BME280;12231;42.782;23.388;2022-09-09T15:08:51;95441.78;;;29.02;54.43
19590;BME280;12231;42.782;23.388;2022-09-09T15:11:17;95450.81;;;28.95;54.91
19590;BME280;12231;42.782;23.388;2022-09-09T15:13:43;95454.25;;;28.95;54.97
19590;BME280;12231;42.782;23.388;2022-09-09T15:16:14;95452.66;;;28.68;56.04